createdAt,value
2022-11-23T00:00:49.452Z,12.26
2022-11-23T00:03:17.443Z,12.23
2022-11-23T00:05:46.821Z,12.25
2022-11-23T00:08:14.827Z,12.30
2022-11-23T00:10:43.003Z,12.23
2022-11-23T00:13:11.060Z,12.19
2022-11-23T00:15:41.793Z,12.16
2022-11-23T00:18:09.761Z,12.03
2022-11-23T00:20:40.390Z,12.17
2022-11-23T00:23:10.300Z,12.27
2022-11-23T00:25:38.405Z,12.27
2022-11-23T00:28:06.440Z,12.14
2022-11-23T00:30:34.457Z,12.13
2022-11-23T00:33:02.611Z,12.20
2022-11-23T00:35:32.606Z,12.22
2022-11-23T00:38:02.589Z,12.23
2022-11-23T00:40:31.976Z,12.32
2022-11-23T00:42:59.975Z,12.29
2022-11-23T00:45:30.541Z,12.32
2022-11-23T00:47:58.525Z,12.35
2022-11-23T00:50:26.581Z,12.40
2022-11-23T00:52:54.654Z,12.41
2022-11-23T00:55:22.695Z,12.45
2022-11-23T00:57:52.094Z,12.45
2022-11-23T01:00:20.256Z,12.49
2022-11-23T01:02:48.297Z,12.38
2022-11-23T01:05:16.393Z,12.38
2022-11-23T01:07:44.463Z,12.35
2022-11-23T01:10:12.477Z,12.34
2022-11-23T01:12:41.680Z,12.44
2022-11-23T01:15:11.718Z,12.47
2022-11-23T01:17:39.762Z,12.46
2022-11-23T01:20:10.841Z,12.55
2022-11-23T01:22:41.295Z,12.55
2022-11-23T01:25:10.724Z,12.58
2022-11-23T01:27:39.897Z,12.57
2022-11-23T01:30:09.396Z,12.58
2022-11-23T01:32:38.785Z,12.61
2022-11-23T01:35:07.671Z,12.69
2022-11-23T01:37:35.640Z,12.66
2022-11-23T01:40:03.649Z,12.63
2022-11-23T01:42:45.334Z,12.65
2022-11-23T01:45:45.268Z,12.69
2022-11-23T01:48:19.065Z,12.77
2022-11-23T01:50:51.067Z,12.79
2022-11-23T01:53:21.748Z,12.76
2022-11-23T01:55:51.887Z,12.78
2022-11-23T01:58:23.749Z,12.85
2022-11-23T02:00:52.220Z,12.85
2022-11-23T02:03:21.661Z,12.85
2022-11-23T02:05:53.239Z,12.85
2022-11-23T02:08:22.529Z,12.72
2022-11-23T02:10:50.620Z,12.77
2022-11-23T02:13:19.309Z,12.75
2022-11-23T02:15:47.389Z,12.85
2022-11-23T02:18:24.220Z,12.91
2022-11-23T02:20:53.176Z,12.97
2022-11-23T02:23:32.572Z,12.91
2022-11-23T02:26:05.112Z,12.79
2022-11-23T02:28:38.819Z,12.65
2022-11-23T02:31:08.048Z,12.75
2022-11-23T02:33:38.951Z,12.77
2022-11-23T02:36:32.206Z,12.73
2022-11-23T02:39:12.960Z,12.81
2022-11-23T02:41:44.265Z,12.60
2022-11-23T02:44:24.572Z,12.75
2022-11-23T02:46:53.705Z,12.87
2022-11-23T02:49:21.743Z,12.95
2022-11-23T02:51:52.186Z,13.01
2022-11-23T02:54:20.244Z,12.97
2022-11-23T02:56:49.631Z,13.04
2022-11-23T02:59:19.160Z,13.01
2022-11-23T03:01:47.409Z,12.96
2022-11-23T03:04:15.640Z,12.93
2022-11-23T03:06:44.052Z,12.96
2022-11-23T03:09:12.219Z,12.93
2022-11-23T03:11:40.292Z,12.92
2022-11-23T03:14:10.131Z,12.95
2022-11-23T03:16:47.513Z,12.76
2022-11-23T03:19:18.127Z,12.78
2022-11-23T03:21:46.232Z,12.85
2022-11-23T03:24:14.220Z,12.89
2022-11-23T03:26:42.324Z,12.92
2022-11-23T03:29:13.112Z,13.02
2022-11-23T03:31:41.885Z,13.00
2022-11-23T03:34:13.542Z,12.92
2022-11-23T03:36:41.934Z,12.88
2022-11-23T03:39:10.331Z,12.92
2022-11-23T03:41:57.330Z,12.81
2022-11-23T03:44:34.000Z,12.90
2022-11-23T03:47:02.037Z,12.85
2022-11-23T03:49:30.778Z,12.93
2022-11-23T03:51:59.100Z,12.94
2022-11-23T03:54:28.728Z,12.99
2022-11-23T03:56:56.690Z,12.97
2022-11-23T03:59:24.788Z,12.97
2022-11-23T04:01:54.905Z,13.00
2022-11-23T04:04:27.403Z,13.11
2022-11-23T04:07:04.295Z,13.14
2022-11-23T04:09:35.637Z,13.20
2022-11-23T04:12:06.805Z,13.27
2022-11-23T04:14:37.661Z,13.24
2022-11-23T04:17:07.115Z,13.31
2022-11-23T04:19:35.314Z,13.34
2022-11-23T04:22:03.685Z,13.25
2022-11-23T04:24:37.401Z,13.27
2022-11-23T04:27:07.652Z,13.27
2022-11-23T04:29:35.683Z,13.32
2022-11-23T04:32:03.766Z,13.32
2022-11-23T04:34:33.278Z,13.18
2022-11-23T04:37:07.850Z,13.22
2022-11-23T04:39:40.353Z,13.33
2022-11-23T04:42:20.706Z,13.36
2022-11-23T04:44:58.550Z,13.35
2022-11-23T04:47:26.883Z,13.29
2022-11-23T04:49:58.269Z,13.27
2022-11-23T04:52:26.333Z,13.36
2022-11-23T04:54:54.369Z,13.38
2022-11-23T04:57:23.778Z,13.32
2022-11-23T04:59:53.519Z,13.30
2022-11-23T05:02:22.931Z,13.26
2022-11-23T05:05:11.621Z,13.23
2022-11-23T05:07:39.975Z,13.22
2022-11-23T05:10:09.214Z,13.20
2022-11-23T05:12:38.076Z,13.30
2022-11-23T05:15:07.153Z,13.31
2022-11-23T05:17:37.896Z,13.24
2022-11-23T05:20:13.020Z,13.29
2022-11-23T05:22:46.142Z,13.23
2022-11-23T05:25:17.360Z,13.18
2022-11-23T05:27:49.937Z,13.24
2022-11-23T05:30:18.833Z,13.29
2022-11-23T05:32:47.821Z,13.26
2022-11-23T05:35:18.157Z,13.27
2022-11-23T05:37:46.215Z,13.22
2022-11-23T05:40:15.204Z,13.29
2022-11-23T05:42:44.133Z,13.24
2022-11-23T05:45:20.688Z,13.25
2022-11-23T05:47:53.180Z,13.10
2022-11-23T05:50:30.862Z,13.12
2022-11-23T05:53:17.155Z,13.20
2022-11-23T05:55:48.108Z,13.16
2022-11-23T05:58:16.265Z,13.23
2022-11-23T06:00:44.414Z,13.32
2022-11-23T06:03:12.637Z,13.29
2022-11-23T06:05:43.016Z,13.31
2022-11-23T06:08:11.000Z,13.25
2022-11-23T06:10:40.713Z,13.27
2022-11-23T06:13:09.009Z,13.23
2022-11-23T06:15:37.100Z,13.26
2022-11-23T06:18:05.643Z,13.30
2022-11-23T06:20:43.053Z,13.32
2022-11-23T06:23:11.091Z,13.31
2022-11-23T06:25:39.578Z,13.30
2022-11-23T06:28:27.199Z,13.37
2022-11-23T06:30:57.373Z,13.39
2022-11-23T06:33:25.725Z,13.49
2022-11-23T06:35:57.532Z,13.51
2022-11-23T06:38:29.774Z,13.56
2022-11-23T06:41:03.657Z,13.50
2022-11-23T06:43:32.602Z,13.48
2022-11-23T06:46:04.732Z,13.51
2022-11-23T06:48:34.355Z,13.50
2022-11-23T06:51:04.516Z,13.50
2022-11-23T06:53:32.991Z,13.36
2022-11-23T06:56:05.684Z,13.33
2022-11-23T06:58:34.254Z,13.49
2022-11-23T07:01:07.302Z,13.54
2022-11-23T07:03:42.085Z,13.46
2022-11-23T07:06:22.394Z,13.52
2022-11-23T07:08:55.756Z,13.37
2022-11-23T07:11:37.838Z,13.51
2022-11-23T07:14:05.916Z,13.52
2022-11-23T07:16:34.750Z,13.39
2022-11-23T07:19:03.153Z,13.47
2022-11-23T07:21:32.537Z,13.53
2022-11-23T07:24:00.624Z,13.58
2022-11-23T07:26:28.607Z,13.59
2022-11-23T07:28:56.658Z,13.53
2022-11-23T07:31:24.759Z,13.63
2022-11-23T07:33:53.431Z,13.64
2022-11-23T07:36:26.048Z,13.63
2022-11-23T07:38:55.500Z,13.63
2022-11-23T07:41:25.846Z,13.68
2022-11-23T07:44:06.190Z,13.74
2022-11-23T07:46:34.497Z,13.69
2022-11-23T07:49:02.684Z,13.70
2022-11-23T07:51:31.040Z,13.64
2022-11-23T07:54:00.481Z,13.67
2022-11-23T07:56:28.500Z,13.70
2022-11-23T07:58:56.506Z,13.73
2022-11-23T08:01:24.511Z,13.68
2022-11-23T08:03:52.520Z,13.65
2022-11-23T08:06:20.726Z,13.64
2022-11-23T08:08:48.751Z,13.63
2022-11-23T08:11:18.816Z,13.66
2022-11-23T08:13:46.822Z,13.66
2022-11-23T08:16:14.848Z,13.68
2022-11-23T08:18:42.872Z,13.66
2022-11-23T08:21:10.984Z,13.77
2022-11-23T08:23:39.009Z,13.78
2022-11-23T08:26:12.044Z,13.78
2022-11-23T08:28:43.136Z,13.79
2022-11-23T08:31:12.332Z,13.75
2022-11-23T08:33:40.589Z,13.88
2022-11-23T08:36:09.738Z,13.95
2022-11-23T08:38:37.722Z,13.84
2022-11-23T08:41:06.648Z,13.94
2022-11-23T08:43:35.664Z,14.00
2022-11-23T08:46:10.971Z,14.00
2022-11-23T08:48:39.630Z,13.96
2022-11-23T08:51:08.338Z,13.98
2022-11-23T08:53:37.043Z,13.96
2022-11-23T08:56:07.052Z,14.01
2022-11-23T08:58:35.386Z,14.08
2022-11-23T09:01:09.714Z,14.14
2022-11-23T09:03:38.173Z,14.20
2022-11-23T09:06:06.927Z,14.14
2022-11-23T09:08:35.964Z,14.14
2022-11-23T09:11:06.771Z,14.23
2022-11-23T09:13:37.023Z,14.38
2022-11-23T09:16:08.932Z,14.32
2022-11-23T09:18:37.744Z,14.28
2022-11-23T09:21:07.145Z,14.33
2022-11-23T09:23:38.645Z,14.49
2022-11-23T09:26:07.138Z,14.56
2022-11-23T09:28:38.035Z,14.71
2022-11-23T09:31:14.763Z,14.58
2022-11-23T09:33:43.297Z,14.55
2022-11-23T09:36:11.609Z,14.57
2022-11-23T09:38:56.266Z,14.66
2022-11-23T09:41:49.023Z,14.69
2022-11-23T09:44:25.698Z,14.65
2022-11-23T09:47:09.075Z,14.67
2022-11-23T09:49:46.113Z,14.66
2022-11-23T09:52:18.078Z,14.60
2022-11-23T09:54:47.610Z,14.72
2022-11-23T09:57:20.856Z,14.81
2022-11-23T09:59:53.105Z,14.86
2022-11-23T10:02:25.363Z,14.96
2022-11-23T10:04:54.932Z,15.04
2022-11-23T10:07:48.368Z,15.07
2022-11-23T10:10:33.028Z,15.09
2022-11-23T10:13:13.473Z,15.18
2022-11-23T10:15:52.363Z,15.16
2022-11-23T10:18:31.766Z,15.18
2022-11-23T10:21:13.636Z,15.07
2022-11-23T10:23:52.909Z,14.93
2022-11-23T10:26:25.161Z,14.94
2022-11-23T10:28:55.233Z,14.97
2022-11-23T10:31:26.013Z,14.84
2022-11-23T10:34:04.906Z,14.87
2022-11-23T10:36:36.696Z,14.98
2022-11-23T10:39:17.728Z,14.94
2022-11-23T10:41:46.364Z,14.88
2022-11-23T10:44:27.545Z,14.95
2022-11-23T10:46:56.435Z,14.91
2022-11-23T10:49:28.047Z,14.80
2022-11-23T10:52:02.099Z,14.86
2022-11-23T10:54:33.675Z,14.91
2022-11-23T10:57:04.018Z,14.88
2022-11-23T10:59:37.813Z,14.79
2022-11-23T11:02:18.320Z,14.79
2022-11-23T11:04:50.523Z,14.79
2022-11-23T11:07:24.869Z,14.80
2022-11-23T11:09:55.300Z,14.80
2022-11-23T11:12:23.736Z,14.85
2022-11-23T11:15:11.034Z,14.83
2022-11-23T11:17:42.089Z,14.75
2022-11-23T11:20:38.178Z,14.85
2022-11-23T11:23:18.581Z,14.84
2022-11-23T11:25:49.053Z,14.84
2022-11-23T11:28:25.203Z,14.70
2022-11-23T11:31:00.854Z,14.75
2022-11-23T11:33:36.572Z,14.67
2022-11-23T11:36:09.550Z,14.69
2022-11-23T11:38:39.031Z,14.75
2022-11-23T11:41:10.023Z,14.84
2022-11-23T11:43:43.685Z,14.92
2022-11-23T11:46:28.892Z,14.82
2022-11-23T11:49:05.863Z,14.84
2022-11-23T11:51:39.307Z,14.71
2022-11-23T11:54:17.876Z,14.65
2022-11-23T11:56:48.267Z,14.69
2022-11-23T11:59:22.399Z,14.68
2022-11-23T12:01:57.964Z,14.97
2022-11-23T12:04:34.043Z,15.18
2022-11-23T12:07:09.736Z,15.32
2022-11-23T12:09:42.106Z,15.25
2022-11-23T12:12:16.058Z,15.32
2022-11-23T12:14:45.266Z,15.45
2022-11-23T12:17:34.678Z,15.51
2022-11-23T12:20:09.648Z,15.55
2022-11-23T12:22:50.178Z,15.58
2022-11-23T12:25:25.847Z,15.73
2022-11-23T12:28:05.355Z,15.89
2022-11-23T12:30:43.921Z,16.42
2022-11-23T12:33:35.391Z,16.75
2022-11-23T12:36:23.792Z,16.92
2022-11-23T12:38:56.742Z,16.81
2022-11-23T12:41:27.229Z,16.77
2022-11-23T12:44:35.782Z,16.96
2022-11-23T12:47:14.242Z,17.05
2022-11-23T12:49:52.078Z,17.11
2022-11-23T12:52:34.578Z,17.64
2022-11-23T12:55:20.268Z,18.08
2022-11-23T12:57:56.817Z,18.35
2022-11-23T13:00:28.356Z,18.59
2022-11-23T13:03:39.146Z,19.17
2022-11-23T13:06:35.881Z,19.44
2022-11-23T13:09:24.988Z,19.51
2022-11-23T13:12:24.763Z,19.60
2022-11-23T13:15:04.625Z,19.24
2022-11-23T13:17:44.356Z,19.29
2022-11-23T13:21:06.626Z,19.12
2022-11-23T13:23:37.590Z,19.28
2022-11-23T13:26:17.979Z,19.25
2022-11-23T13:28:48.994Z,19.32
2022-11-23T13:31:27.091Z,19.47
2022-11-23T13:33:57.025Z,19.55
2022-11-23T13:40:04.014Z,19.54
2022-11-23T13:42:34.969Z,19.38
2022-11-23T13:45:26.970Z,18.47
2022-11-23T13:48:41.435Z,18.13
2022-11-23T13:51:06.068Z,17.76
2022-11-23T13:53:36.329Z,17.46
2022-11-23T13:56:27.281Z,17.14
2022-11-23T13:58:57.011Z,17.09
2022-11-23T14:02:01.819Z,17.22
2022-11-23T14:04:40.396Z,17.77
2022-11-23T14:07:18.232Z,17.87
2022-11-23T14:09:57.530Z,17.66
2022-11-23T14:12:41.807Z,17.74
2022-11-23T14:15:21.730Z,17.53
2022-11-23T14:18:23.846Z,17.67
2022-11-23T14:21:16.491Z,17.63
2022-11-23T14:24:29.616Z,17.73
2022-11-23T14:27:46.753Z,17.69
2022-11-23T14:30:58.325Z,17.20
2022-11-23T14:34:00.662Z,16.78
2022-11-23T14:37:05.438Z,16.55
2022-11-23T14:40:23.992Z,16.22
2022-11-23T14:42:57.593Z,16.05
2022-11-23T14:45:53.757Z,15.75
2022-11-23T14:48:23.390Z,15.66
2022-11-23T14:51:01.536Z,15.42
2022-11-23T14:53:32.442Z,15.48
2022-11-23T14:56:00.887Z,15.33
2022-11-23T14:58:33.256Z,15.27
2022-11-23T15:01:03.257Z,15.17
2022-11-23T15:03:50.709Z,15.14
2022-11-23T15:06:25.369Z,14.97
2022-11-23T15:09:04.648Z,14.87
2022-11-23T15:11:35.858Z,14.85
2022-11-23T15:14:04.698Z,14.85
2022-11-23T15:16:42.668Z,14.66
2022-11-23T15:19:28.230Z,14.66
2022-11-23T15:21:58.444Z,14.62
2022-11-23T15:24:28.089Z,14.60
2022-11-23T15:27:09.488Z,14.55
2022-11-23T15:29:41.186Z,14.45
2022-11-23T15:32:33.132Z,14.50
2022-11-23T15:35:06.961Z,14.53
2022-11-23T15:37:48.926Z,14.50
2022-11-23T15:40:19.902Z,14.49
2022-11-23T15:42:50.126Z,14.34
2022-11-23T15:45:39.028Z,14.39
2022-11-23T15:48:14.147Z,14.41
2022-11-23T15:50:49.347Z,14.38
2022-11-23T15:53:19.201Z,14.35
2022-11-23T15:55:47.945Z,14.30
2022-11-23T15:58:18.986Z,14.23
2022-11-23T16:00:53.126Z,14.34
2022-11-23T16:03:35.209Z,14.43
2022-11-23T16:06:29.493Z,14.48
2022-11-23T16:08:59.379Z,14.27
2022-11-23T16:11:33.693Z,14.14
2022-11-23T16:14:16.900Z,14.09
2022-11-23T16:16:46.799Z,14.13
2022-11-23T16:19:26.402Z,14.00
2022-11-23T16:22:02.237Z,13.96
2022-11-23T16:24:35.374Z,13.91
2022-11-23T16:27:13.904Z,13.92
2022-11-23T16:29:42.719Z,13.93
2022-11-23T16:32:23.457Z,13.55
2022-11-23T16:34:55.899Z,13.74
2022-11-23T16:37:26.422Z,13.81
2022-11-23T16:39:56.143Z,13.70
2022-11-23T16:42:25.536Z,13.84
2022-11-23T16:44:53.742Z,13.69
2022-11-23T16:47:26.969Z,13.80
2022-11-23T16:49:55.977Z,13.81
2022-11-23T16:52:24.421Z,13.85
2022-11-23T16:54:53.713Z,13.78
2022-11-23T16:57:30.737Z,13.63
2022-11-23T17:00:00.513Z,13.51
2022-11-23T17:02:28.952Z,13.47
2022-11-23T17:04:57.368Z,13.50
2022-11-23T17:07:35.396Z,13.44
2022-11-23T17:10:06.270Z,13.41
2022-11-23T17:12:40.335Z,13.48
2022-11-23T17:15:18.183Z,13.51
2022-11-23T17:18:19.631Z,13.52
2022-11-23T17:23:47.576Z,13.54
2022-11-23T17:26:45.384Z,13.47
2022-11-23T17:29:26.562Z,13.55
2022-11-23T17:32:04.207Z,13.58
2022-11-23T17:34:38.991Z,13.60
2022-11-23T17:37:21.181Z,13.71
2022-11-23T17:39:52.983Z,13.60
2022-11-23T17:42:26.697Z,13.59
2022-11-23T17:44:56.627Z,13.48
2022-11-23T17:47:28.627Z,13.56
2022-11-23T17:49:57.618Z,13.62
2022-11-23T17:52:26.435Z,13.81
2022-11-23T17:54:54.640Z,13.84
2022-11-23T17:57:25.516Z,13.95
2022-11-23T17:59:54.265Z,13.97
2022-11-23T18:02:23.831Z,13.89
2022-11-23T18:04:52.239Z,13.79
2022-11-23T18:07:20.759Z,13.88
2022-11-23T18:09:49.065Z,13.95
2022-11-23T18:12:17.786Z,13.78
2022-11-23T18:14:46.080Z,13.96
2022-11-23T18:17:15.578Z,14.00
2022-11-23T18:19:45.344Z,13.83
2022-11-23T18:22:13.792Z,13.79
2022-11-23T18:24:42.082Z,13.83
2022-11-23T18:27:10.428Z,13.51
2022-11-23T18:29:40.302Z,13.70
2022-11-23T18:32:09.439Z,13.54
2022-11-23T18:34:37.672Z,13.58
2022-11-23T18:37:07.922Z,13.43
2022-11-23T18:39:36.291Z,13.63
2022-11-23T18:42:06.123Z,13.64
2022-11-23T18:44:35.078Z,13.64
2022-11-23T18:47:03.399Z,13.58
2022-11-23T18:49:32.199Z,13.53
2022-11-23T18:52:00.761Z,13.47
2022-11-23T18:54:30.451Z,13.45
2022-11-23T18:56:58.813Z,13.49
2022-11-23T18:59:57.608Z,13.43
2022-11-23T19:02:15.379Z,13.37
2022-11-23T19:04:43.713Z,13.35
2022-11-23T19:07:12.064Z,13.32
2022-11-23T19:09:41.782Z,13.32
2022-11-23T19:12:10.103Z,13.23
2022-11-23T19:14:38.362Z,13.19
2022-11-23T19:17:06.666Z,13.14
2022-11-23T19:19:35.412Z,13.15
2022-11-23T19:22:04.038Z,13.11
2022-11-23T19:24:32.331Z,12.96
2022-11-23T19:27:02.000Z,12.95
2022-11-23T19:29:30.333Z,12.71
2022-11-23T19:31:58.590Z,12.73
2022-11-23T19:34:26.862Z,12.66
2022-11-23T19:36:55.101Z,12.64
2022-11-23T19:39:23.566Z,12.65
2022-11-23T19:41:51.907Z,12.75
2022-11-23T19:44:21.513Z,12.59
2022-11-23T19:46:49.957Z,12.64
2022-11-23T19:49:18.580Z,12.73
2022-11-23T19:51:51.014Z,12.69
2022-11-23T19:54:19.360Z,12.79
2022-11-23T19:56:47.592Z,12.55
2022-11-23T19:59:15.823Z,12.57
2022-11-23T20:01:45.491Z,12.62
2022-11-23T20:04:13.764Z,12.51
2022-11-23T20:06:44.032Z,12.56
2022-11-23T20:09:16.842Z,12.62
2022-11-23T20:11:50.391Z,12.67
2022-11-23T20:14:20.279Z,12.67
2022-11-23T20:16:50.037Z,12.73
2022-11-23T20:19:18.335Z,12.57
2022-11-23T20:21:46.587Z,12.49
2022-11-23T20:24:16.776Z,12.57
2022-11-23T20:26:45.131Z,12.60
2022-11-23T20:29:14.785Z,12.44
2022-11-23T20:31:43.156Z,12.34
2022-11-23T20:34:18.286Z,12.34
2022-11-23T20:36:48.792Z,12.50
2022-11-23T20:39:17.060Z,12.63
2022-11-23T20:41:45.565Z,12.45
2022-11-23T20:44:15.267Z,12.46
2022-11-23T20:49:34.097Z,12.55
2022-11-23T20:52:03.024Z,12.84
2022-11-23T20:54:31.925Z,12.81
2022-11-23T20:57:00.739Z,12.93
2022-11-23T20:59:29.233Z,12.97
2022-11-23T21:01:57.356Z,12.94
2022-11-23T21:04:25.597Z,13.09
2022-11-23T21:06:55.125Z,12.99
2022-11-23T21:09:23.188Z,13.00
2022-11-23T21:12:08.684Z,13.03
2022-11-23T21:14:37.162Z,13.17
2022-11-23T21:17:05.671Z,13.06
2022-11-23T21:19:35.579Z,13.05
2022-11-23T21:22:07.234Z,13.14
2022-11-23T21:24:36.278Z,13.00
2022-11-23T21:27:05.372Z,13.07
2022-11-23T21:29:33.842Z,13.15
2022-11-23T21:32:02.503Z,13.19
2022-11-23T21:34:31.639Z,12.97
2022-11-23T21:37:00.096Z,13.10
2022-11-23T21:39:31.059Z,13.18
2022-11-23T21:41:59.197Z,13.02
2022-11-23T21:44:27.215Z,13.03
2022-11-23T21:46:55.503Z,13.02
2022-11-23T21:49:23.538Z,12.86
2022-11-23T21:51:51.618Z,12.94
2022-11-23T21:54:19.588Z,12.92
2022-11-23T21:56:49.029Z,12.90
2022-11-23T21:59:17.095Z,12.94
2022-11-23T22:01:45.201Z,12.97
2022-11-23T22:04:15.479Z,13.04
2022-11-23T22:06:45.359Z,12.91
2022-11-23T22:09:14.103Z,12.89
2022-11-23T22:11:44.175Z,12.97
2022-11-23T22:14:15.727Z,12.93
2022-11-23T22:16:45.394Z,13.00
2022-11-23T22:19:15.197Z,12.96
2022-11-23T22:21:44.786Z,13.03
2022-11-23T22:24:14.281Z,13.02
2022-11-23T22:26:42.618Z,13.04
2022-11-23T22:29:11.771Z,13.04
2022-11-23T22:31:41.629Z,13.07
2022-11-23T22:34:13.303Z,12.97
2022-11-23T22:36:41.777Z,13.04
2022-11-23T22:39:10.437Z,13.15
2022-11-23T22:41:39.255Z,13.18
2022-11-23T22:44:10.818Z,13.18
2022-11-23T22:46:41.143Z,13.24
2022-11-23T22:49:09.228Z,13.27
2022-11-23T22:51:37.365Z,13.27
2022-11-23T22:54:05.818Z,13.36
2022-11-23T22:56:34.213Z,13.38
2022-11-23T22:59:02.310Z,13.41
2022-11-23T23:01:31.765Z,13.50
2022-11-23T23:04:02.767Z,13.46
2022-11-23T23:06:34.058Z,13.43
2022-11-23T23:09:02.778Z,13.52
2022-11-23T23:11:32.055Z,13.50
2022-11-23T23:14:00.843Z,13.54
2022-11-23T23:16:30.150Z,13.46
2022-11-23T23:18:59.349Z,13.45
2022-11-23T23:21:29.777Z,13.48
2022-11-23T23:23:59.870Z,13.54
2022-11-23T23:26:28.716Z,13.45
2022-11-23T23:28:57.333Z,13.46
2022-11-23T23:31:25.949Z,13.48
2022-11-23T23:33:54.661Z,13.31
2022-11-23T23:36:24.452Z,13.30
2022-11-23T23:38:54.067Z,13.29
2022-11-23T23:41:22.146Z,13.27
2022-11-23T23:43:50.291Z,13.20
2022-11-23T23:46:18.444Z,13.17
2022-11-23T23:48:46.722Z,13.17
2022-11-23T23:51:16.503Z,13.04
2022-11-23T23:53:45.497Z,13.07
2022-11-23T23:56:17.005Z,13.06
2022-11-23T23:58:45.558Z,13.04
